sensor_id;sensor_type;location;lat;lon;timestamp;P1;durP1;ratioP1;P2;durP2;ratioP2
2710;SDS011;20721;47.402;8.550;2023-12-20T00:00:37;10.59;;;10.59;;
2710;SDS011;20721;47.402;8.550;2023-12-20T00:02:37;10.98;;;10.98;;
2710;SDS011;20721;47.402;8.550;2023-12-20T00:04:37;11.30;;;11.30;;
2710;SDS011;20721;47.402;8.550;2023-12-20T00:06:37;11.72;;;11.72;;
2710;SDS011;20721;47.402;8.550;2023-12-20T00:08:37;11.12;;;11.12;;
2710;SDS011;20721;47.402;8.550;2023-12-20T00:10:37;11.11;;;11.11;;
2710;SDS011;20721;47.402;8.550;2023-12-20T00:13:38;11.63;;;11.63;;
2710;SDS011;20721;47.402;8.550;2023-12-20T00:15:37;11.13;;;11.13;;
2710;SDS011;20721;47.402;8.550;2023-12-20T00:17:38;10.32;;;10.32;;
2710;SDS011;20721;47.402;8.550;2023-12-20T00:19:38;10.87;;;10.87;;
2710;SDS011;20721;47.402;8.550;2023-12-20T00:21:37;11.04;;;11.04;;
2710;SDS011;20721;47.402;8.550;2023-12-20T00:23:37;12.00;;;12.00;;
2710;SDS011;20721;47.402;8.550;2023-12-20T00:25:38;11.33;;;11.33;;
2710;SDS011;20721;47.402;8.550;2023-12-20T00:27:37;11.35;;;11.32;;
2710;SDS011;20721;47.402;8.550;2023-12-20T00:29:37;10.61;;;10.61;;
2710;SDS011;20721;47.402;8.550;2023-12-20T00:32:38;10.69;;;10.69;;
2710;SDS011;20721;47.402;8.550;2023-12-20T00:34:37;10.26;;;10.26;;
2710;SDS011;20721;47.402;8.550;2023-12-20T00:36:37;10.48;;;10.45;;
2710;SDS011;20721;47.402;8.550;2023-12-20T00:38:37;10.40;;;10.40;;
2710;SDS011;20721;47.402;8.550;2023-12-20T00:40:38;9.88;;;9.88;;
2710;SDS011;20721;47.402;8.550;2023-12-20T00:42:37;10.17;;;10.17;;
2710;SDS011;20721;47.402;8.550;2023-12-20T00:44:37;9.90;;;9.90;;
2710;SDS011;20721;47.402;8.550;2023-12-20T00:46:38;10.35;;;10.35;;
2710;SDS011;20721;47.402;8.550;2023-12-20T00:49:38;10.07;;;10.06;;
2710;SDS011;20721;47.402;8.550;2023-12-20T00:51:38;10.25;;;10.25;;
2710;SDS011;20721;47.402;8.550;2023-12-20T00:53:38;9.91;;;9.91;;
2710;SDS011;20721;47.402;8.550;2023-12-20T00:55:39;10.52;;;10.52;;
2710;SDS011;20721;47.402;8.550;2023-12-20T00:57:37;10.06;;;10.06;;
2710;SDS011;20721;47.402;8.550;2023-12-20T00:59:38;11.29;;;11.29;;
2710;SDS011;20721;47.402;8.550;2023-12-20T01:01:38;10.10;;;10.10;;
2710;SDS011;20721;47.402;8.550;2023-12-20T01:03:38;9.52;;;9.52;;
2710;SDS011;20721;47.402;8.550;2023-12-20T01:05:39;10.00;;;10.00;;
2710;SDS011;20721;47.402;8.550;2023-12-20T01:07:38;9.91;;;9.91;;
2710;SDS011;20721;47.402;8.550;2023-12-20T01:09:38;10.31;;;10.31;;
2710;SDS011;20721;47.402;8.550;2023-12-20T01:13:38;11.07;;;11.07;;
2710;SDS011;20721;47.402;8.550;2023-12-20T01:15:38;10.87;;;10.87;;
2710;SDS011;20721;47.402;8.550;2023-12-20T01:17:38;11.24;;;11.20;;
2710;SDS011;20721;47.402;8.550;2023-12-20T01:20:38;10.37;;;10.37;;
2710;SDS011;20721;47.402;8.550;2023-12-20T01:22:38;10.36;;;10.36;;
2710;SDS011;20721;47.402;8.550;2023-12-20T01:24:38;10.24;;;10.24;;
2710;SDS011;20721;47.402;8.550;2023-12-20T01:26:38;11.15;;;11.11;;
2710;SDS011;20721;47.402;8.550;2023-12-20T01:29:38;11.41;;;11.41;;
2710;SDS011;20721;47.402;8.550;2023-12-20T01:31:38;11.61;;;11.61;;
2710;SDS011;20721;47.402;8.550;2023-12-20T01:34:38;11.78;;;11.78;;
2710;SDS011;20721;47.402;8.550;2023-12-20T01:36:38;11.56;;;11.56;;
2710;SDS011;20721;47.402;8.550;2023-12-20T01:38:38;11.75;;;11.75;;
2710;SDS011;20721;47.402;8.550;2023-12-20T01:40:38;11.13;;;11.13;;
2710;SDS011;20721;47.402;8.550;2023-12-20T01:42:38;11.57;;;11.57;;
2710;SDS011;20721;47.402;8.550;2023-12-20T01:44:38;11.63;;;11.63;;
2710;SDS011;20721;47.402;8.550;2023-12-20T01:46:38;10.99;;;10.99;;
2710;SDS011;20721;47.402;8.550;2023-12-20T01:49:38;11.26;;;11.21;;
2710;SDS011;20721;47.402;8.550;2023-12-20T01:51:38;11.86;;;11.86;;
2710;SDS011;20721;47.402;8.550;2023-12-20T01:53:38;10.94;;;10.81;;
2710;SDS011;20721;47.402;8.550;2023-12-20T01:55:41;10.72;;;10.72;;
2710;SDS011;20721;47.402;8.550;2023-12-20T01:57:39;9.89;;;9.86;;
2710;SDS011;20721;47.402;8.550;2023-12-20T01:59:39;10.55;;;10.43;;
2710;SDS011;20721;47.402;8.550;2023-12-20T02:01:38;9.97;;;9.97;;
2710;SDS011;20721;47.402;8.550;2023-12-20T02:03:38;9.48;;;9.32;;
2710;SDS011;20721;47.402;8.550;2023-12-20T02:05:39;11.07;;;11.06;;
2710;SDS011;20721;47.402;8.550;2023-12-20T02:07:39;11.14;;;11.14;;
2710;SDS011;20721;47.402;8.550;2023-12-20T02:09:38;11.35;;;11.35;;
2710;SDS011;20721;47.402;8.550;2023-12-20T02:11:39;11.17;;;11.17;;
2710;SDS011;20721;47.402;8.550;2023-12-20T02:13:38;10.63;;;10.63;;
2710;SDS011;20721;47.402;8.550;2023-12-20T02:15:38;11.33;;;11.33;;
2710;SDS011;20721;47.402;8.550;2023-12-20T02:17:39;12.33;;;12.33;;
2710;SDS011;20721;47.402;8.550;2023-12-20T02:19:38;12.24;;;12.24;;
2710;SDS011;20721;47.402;8.550;2023-12-20T02:21:42;12.16;;;12.16;;
2710;SDS011;20721;47.402;8.550;2023-12-20T02:23:38;13.00;;;13.00;;
2710;SDS011;20721;47.402;8.550;2023-12-20T02:25:38;12.45;;;12.45;;
2710;SDS011;20721;47.402;8.550;2023-12-20T02:27:39;12.37;;;12.37;;
2710;SDS011;20721;47.402;8.550;2023-12-20T02:29:38;11.92;;;11.92;;
2710;SDS011;20721;47.402;8.550;2023-12-20T02:31:38;12.24;;;12.24;;
2710;SDS011;20721;47.402;8.550;2023-12-20T02:33:38;13.23;;;13.23;;
2710;SDS011;20721;47.402;8.550;2023-12-20T02:35:38;12.77;;;12.77;;
2710;SDS011;20721;47.402;8.550;2023-12-20T02:37:38;13.01;;;13.01;;
2710;SDS011;20721;47.402;8.550;2023-12-20T02:39:38;11.81;;;11.81;;
2710;SDS011;20721;47.402;8.550;2023-12-20T02:41:38;11.38;;;11.38;;
2710;SDS011;20721;47.402;8.550;2023-12-20T02:43:38;10.71;;;10.71;;
2710;SDS011;20721;47.402;8.550;2023-12-20T02:45:38;10.23;;;10.23;;
2710;SDS011;20721;47.402;8.550;2023-12-20T02:47:39;10.48;;;10.48;;
2710;SDS011;20721;47.402;8.550;2023-12-20T02:49:38;10.06;;;10.06;;
2710;SDS011;20721;47.402;8.550;2023-12-20T02:51:38;10.23;;;10.23;;
2710;SDS011;20721;47.402;8.550;2023-12-20T02:53:38;9.74;;;9.74;;
2710;SDS011;20721;47.402;8.550;2023-12-20T02:55:38;9.63;;;9.63;;
2710;SDS011;20721;47.402;8.550;2023-12-20T02:57:38;9.41;;;9.41;;
2710;SDS011;20721;47.402;8.550;2023-12-20T02:59:38;9.12;;;9.12;;
2710;SDS011;20721;47.402;8.550;2023-12-20T03:01:42;9.65;;;9.65;;
2710;SDS011;20721;47.402;8.550;2023-12-20T03:03:38;9.33;;;9.33;;
2710;SDS011;20721;47.402;8.550;2023-12-20T03:05:38;9.43;;;9.43;;
2710;SDS011;20721;47.402;8.550;2023-12-20T03:07:38;9.50;;;9.50;;
2710;SDS011;20721;47.402;8.550;2023-12-20T03:09:41;8.79;;;8.79;;
2710;SDS011;20721;47.402;8.550;2023-12-20T03:11:38;9.88;;;9.88;;
2710;SDS011;20721;47.402;8.550;2023-12-20T03:13:38;9.64;;;9.64;;
2710;SDS011;20721;47.402;8.550;2023-12-20T03:15:38;9.90;;;9.77;;
2710;SDS011;20721;47.402;8.550;2023-12-20T03:17:38;8.59;;;8.59;;
2710;SDS011;20721;47.402;8.550;2023-12-20T03:19:39;10.73;;;10.73;;
2710;SDS011;20721;47.402;8.550;2023-12-20T03:21:38;9.20;;;9.20;;
2710;SDS011;20721;47.402;8.550;2023-12-20T03:23:38;9.03;;;9.03;;
2710;SDS011;20721;47.402;8.550;2023-12-20T03:25:38;8.35;;;8.35;;
2710;SDS011;20721;47.402;8.550;2023-12-20T03:27:38;9.51;;;9.51;;
2710;SDS011;20721;47.402;8.550;2023-12-20T03:29:38;9.06;;;9.06;;
2710;SDS011;20721;47.402;8.550;2023-12-20T03:31:38;8.91;;;8.91;;
2710;SDS011;20721;47.402;8.550;2023-12-20T03:33:38;8.85;;;8.85;;
2710;SDS011;20721;47.402;8.550;2023-12-20T03:35:38;8.72;;;8.72;;
2710;SDS011;20721;47.402;8.550;2023-12-20T03:37:38;9.22;;;9.22;;
2710;SDS011;20721;47.402;8.550;2023-12-20T03:39:38;10.10;;;10.10;;
2710;SDS011;20721;47.402;8.550;2023-12-20T03:41:38;9.07;;;8.95;;
2710;SDS011;20721;47.402;8.550;2023-12-20T03:43:38;9.87;;;9.87;;
2710;SDS011;20721;47.402;8.550;2023-12-20T03:45:38;9.77;;;9.77;;
2710;SDS011;20721;47.402;8.550;2023-12-20T03:47:38;9.61;;;9.61;;
2710;SDS011;20721;47.402;8.550;2023-12-20T03:49:38;9.77;;;9.77;;
2710;SDS011;20721;47.402;8.550;2023-12-20T03:51:38;8.26;;;8.26;;
2710;SDS011;20721;47.402;8.550;2023-12-20T03:53:38;9.40;;;9.39;;
2710;SDS011;20721;47.402;8.550;2023-12-20T03:55:38;9.01;;;9.01;;
2710;SDS011;20721;47.402;8.550;2023-12-20T03:57:38;9.73;;;9.73;;
2710;SDS011;20721;47.402;8.550;2023-12-20T03:59:38;8.81;;;8.80;;
2710;SDS011;20721;47.402;8.550;2023-12-20T04:01:38;9.02;;;9.02;;
2710;SDS011;20721;47.402;8.550;2023-12-20T04:03:38;9.97;;;9.97;;
2710;SDS011;20721;47.402;8.550;2023-12-20T04:05:39;8.74;;;8.74;;
2710;SDS011;20721;47.402;8.550;2023-12-20T04:07:39;9.89;;;9.89;;
2710;SDS011;20721;47.402;8.550;2023-12-20T04:09:38;9.27;;;9.27;;
2710;SDS011;20721;47.402;8.550;2023-12-20T04:11:38;9.43;;;9.43;;
2710;SDS011;20721;47.402;8.550;2023-12-20T04:13:38;9.32;;;9.32;;
2710;SDS011;20721;47.402;8.550;2023-12-20T04:15:38;8.62;;;8.62;;
2710;SDS011;20721;47.402;8.550;2023-12-20T04:17:38;10.32;;;10.32;;
2710;SDS011;20721;47.402;8.550;2023-12-20T04:19:38;8.55;;;8.55;;
2710;SDS011;20721;47.402;8.550;2023-12-20T04:21:38;8.34;;;8.34;;
2710;SDS011;20721;47.402;8.550;2023-12-20T04:23:38;9.00;;;9.00;;
2710;SDS011;20721;47.402;8.550;2023-12-20T04:25:38;8.42;;;8.42;;
2710;SDS011;20721;47.402;8.550;2023-12-20T04:27:38;8.10;;;8.10;;
2710;SDS011;20721;47.402;8.550;2023-12-20T04:29:38;9.36;;;9.31;;
2710;SDS011;20721;47.402;8.550;2023-12-20T04:31:38;8.10;;;8.10;;
2710;SDS011;20721;47.402;8.550;2023-12-20T04:33:38;7.72;;;7.72;;
2710;SDS011;20721;47.402;8.550;2023-12-20T04:35:38;8.14;;;8.14;;
2710;SDS011;20721;47.402;8.550;2023-12-20T04:37:38;7.97;;;7.97;;
2710;SDS011;20721;47.402;8.550;2023-12-20T04:39:38;8.15;;;8.15;;
2710;SDS011;20721;47.402;8.550;2023-12-20T04:41:38;8.02;;;8.02;;
2710;SDS011;20721;47.402;8.550;2023-12-20T04:44:38;7.63;;;7.63;;
2710;SDS011;20721;47.402;8.550;2023-12-20T04:46:38;7.54;;;7.54;;
2710;SDS011;20721;47.402;8.550;2023-12-20T04:48:38;7.66;;;7.66;;
2710;SDS011;20721;47.402;8.550;2023-12-20T04:50:38;7.31;;;7.31;;
2710;SDS011;20721;47.402;8.550;2023-12-20T04:52:38;7.42;;;7.42;;
2710;SDS011;20721;47.402;8.550;2023-12-20T04:54:38;8.04;;;8.04;;
2710;SDS011;20721;47.402;8.550;2023-12-20T04:56:38;8.09;;;8.09;;
2710;SDS011;20721;47.402;8.550;2023-12-20T04:58:38;7.98;;;7.98;;
2710;SDS011;20721;47.402;8.550;2023-12-20T05:00:38;8.41;;;8.41;;
2710;SDS011;20721;47.402;8.550;2023-12-20T05:02:38;7.24;;;7.24;;
2710;SDS011;20721;47.402;8.550;2023-12-20T05:05:38;7.33;;;7.33;;
2710;SDS011;20721;47.402;8.550;2023-12-20T05:07:38;6.47;;;6.47;;
2710;SDS011;20721;47.402;8.550;2023-12-20T05:09:38;6.19;;;6.19;;
2710;SDS011;20721;47.402;8.550;2023-12-20T05:11:38;6.94;;;6.94;;
2710;SDS011;20721;47.402;8.550;2023-12-20T05:13:49;7.06;;;7.06;;
2710;SDS011;20721;47.402;8.550;2023-12-20T05:15:38;7.09;;;7.09;;
2710;SDS011;20721;47.402;8.550;2023-12-20T05:17:38;6.91;;;6.91;;
2710;SDS011;20721;47.402;8.550;2023-12-20T05:19:38;7.19;;;7.19;;
2710;SDS011;20721;47.402;8.550;2023-12-20T05:21:38;8.07;;;8.01;;
2710;SDS011;20721;47.402;8.550;2023-12-20T05:23:38;7.23;;;7.23;;
2710;SDS011;20721;47.402;8.550;2023-12-20T05:25:38;7.32;;;7.32;;
2710;SDS011;20721;47.402;8.550;2023-12-20T05:27:38;7.04;;;7.04;;
2710;SDS011;20721;47.402;8.550;2023-12-20T05:29:38;7.91;;;7.91;;
2710;SDS011;20721;47.402;8.550;2023-12-20T05:31:38;7.24;;;7.22;;
2710;SDS011;20721;47.402;8.550;2023-12-20T05:33:38;6.93;;;6.93;;
2710;SDS011;20721;47.402;8.550;2023-12-20T05:36:38;6.84;;;6.84;;
2710;SDS011;20721;47.402;8.550;2023-12-20T05:39:38;7.62;;;7.62;;
2710;SDS011;20721;47.402;8.550;2023-12-20T05:41:38;7.03;;;7.03;;
2710;SDS011;20721;47.402;8.550;2023-12-20T05:43:38;6.79;;;6.79;;
2710;SDS011;20721;47.402;8.550;2023-12-20T05:45:39;6.51;;;6.51;;
2710;SDS011;20721;47.402;8.550;2023-12-20T05:47:38;7.31;;;7.31;;
2710;SDS011;20721;47.402;8.550;2023-12-20T05:49:38;7.09;;;7.09;;
2710;SDS011;20721;47.402;8.550;2023-12-20T05:51:38;7.21;;;7.21;;
2710;SDS011;20721;47.402;8.550;2023-12-20T05:53:38;7.00;;;7.00;;
2710;SDS011;20721;47.402;8.550;2023-12-20T05:55:38;7.00;;;7.00;;
2710;SDS011;20721;47.402;8.550;2023-12-20T05:57:38;6.82;;;6.82;;
2710;SDS011;20721;47.402;8.550;2023-12-20T05:59:38;7.04;;;7.04;;
2710;SDS011;20721;47.402;8.550;2023-12-20T06:01:38;6.97;;;6.97;;
2710;SDS011;20721;47.402;8.550;2023-12-20T06:03:41;7.02;;;7.02;;
2710;SDS011;20721;47.402;8.550;2023-12-20T06:05:38;6.98;;;6.98;;
2710;SDS011;20721;47.402;8.550;2023-12-20T06:07:39;6.79;;;6.79;;
2710;SDS011;20721;47.402;8.550;2023-12-20T06:09:41;6.41;;;6.41;;
2710;SDS011;20721;47.402;8.550;2023-12-20T06:11:38;6.76;;;6.76;;
2710;SDS011;20721;47.402;8.550;2023-12-20T06:13:38;7.18;;;7.18;;
2710;SDS011;20721;47.402;8.550;2023-12-20T06:15:38;6.12;;;6.12;;
2710;SDS011;20721;47.402;8.550;2023-12-20T06:17:40;6.21;;;6.21;;
2710;SDS011;20721;47.402;8.550;2023-12-20T06:19:38;5.77;;;5.77;;
2710;SDS011;20721;47.402;8.550;2023-12-20T06:21:38;6.16;;;6.16;;
2710;SDS011;20721;47.402;8.550;2023-12-20T06:24:38;7.08;;;7.08;;
2710;SDS011;20721;47.402;8.550;2023-12-20T06:26:38;6.55;;;6.55;;
2710;SDS011;20721;47.402;8.550;2023-12-20T06:28:38;6.65;;;6.65;;
2710;SDS011;20721;47.402;8.550;2023-12-20T06:30:38;7.07;;;7.07;;
2710;SDS011;20721;47.402;8.550;2023-12-20T06:32:39;6.53;;;6.53;;
2710;SDS011;20721;47.402;8.550;2023-12-20T06:34:39;5.77;;;5.77;;
2710;SDS011;20721;47.402;8.550;2023-12-20T06:36:38;6.35;;;6.35;;
2710;SDS011;20721;47.402;8.550;2023-12-20T06:38:39;6.52;;;6.52;;
2710;SDS011;20721;47.402;8.550;2023-12-20T06:40:38;6.84;;;6.84;;
2710;SDS011;20721;47.402;8.550;2023-12-20T06:42:41;6.42;;;6.42;;
2710;SDS011;20721;47.402;8.550;2023-12-20T06:45:38;7.10;;;7.10;;
2710;SDS011;20721;47.402;8.550;2023-12-20T06:47:38;6.54;;;6.54;;
2710;SDS011;20721;47.402;8.550;2023-12-20T06:49:39;6.27;;;6.27;;
2710;SDS011;20721;47.402;8.550;2023-12-20T06:51:38;6.35;;;6.35;;
2710;SDS011;20721;47.402;8.550;2023-12-20T06:54:38;6.78;;;6.78;;
2710;SDS011;20721;47.402;8.550;2023-12-20T06:56:38;6.51;;;6.51;;
2710;SDS011;20721;47.402;8.550;2023-12-20T07:01:39;6.37;;;6.37;;
2710;SDS011;20721;47.402;8.550;2023-12-20T07:03:38;6.68;;;6.68;;
2710;SDS011;20721;47.402;8.550;2023-12-20T07:05:38;6.23;;;6.23;;
2710;SDS011;20721;47.402;8.550;2023-12-20T07:07:38;5.93;;;5.93;;
2710;SDS011;20721;47.402;8.550;2023-12-20T07:09:38;6.91;;;6.91;;
2710;SDS011;20721;47.402;8.550;2023-12-20T07:11:39;6.51;;;6.51;;
2710;SDS011;20721;47.402;8.550;2023-12-20T07:13:39;6.03;;;6.03;;
2710;SDS011;20721;47.402;8.550;2023-12-20T07:15:40;6.68;;;6.68;;
2710;SDS011;20721;47.402;8.550;2023-12-20T07:17:38;6.41;;;6.41;;
2710;SDS011;20721;47.402;8.550;2023-12-20T07:19:39;6.68;;;6.68;;
2710;SDS011;20721;47.402;8.550;2023-12-20T07:21:39;6.98;;;6.98;;
2710;SDS011;20721;47.402;8.550;2023-12-20T07:23:39;6.22;;;6.22;;
2710;SDS011;20721;47.402;8.550;2023-12-20T07:25:42;6.31;;;6.31;;
2710;SDS011;20721;47.402;8.550;2023-12-20T07:27:38;6.39;;;6.39;;
2710;SDS011;20721;47.402;8.550;2023-12-20T07:29:38;6.65;;;6.65;;
2710;SDS011;20721;47.402;8.550;2023-12-20T07:34:39;6.61;;;6.61;;
2710;SDS011;20721;47.402;8.550;2023-12-20T07:36:39;6.68;;;6.68;;
2710;SDS011;20721;47.402;8.550;2023-12-20T07:38:38;6.22;;;6.22;;
2710;SDS011;20721;47.402;8.550;2023-12-20T07:42:39;7.01;;;7.01;;
2710;SDS011;20721;47.402;8.550;2023-12-20T07:44:38;6.54;;;6.54;;
2710;SDS011;20721;47.402;8.550;2023-12-20T07:46:39;6.50;;;6.50;;
2710;SDS011;20721;47.402;8.550;2023-12-20T07:48:39;6.03;;;6.03;;
2710;SDS011;20721;47.402;8.550;2023-12-20T07:51:39;7.26;;;7.26;;
2710;SDS011;20721;47.402;8.550;2023-12-20T07:53:39;7.91;;;7.91;;
2710;SDS011;20721;47.402;8.550;2023-12-20T07:55:40;6.79;;;6.79;;
2710;SDS011;20721;47.402;8.550;2023-12-20T07:57:39;6.61;;;6.61;;
2710;SDS011;20721;47.402;8.550;2023-12-20T07:59:43;6.56;;;6.56;;
2710;SDS011;20721;47.402;8.550;2023-12-20T08:01:39;6.04;;;6.04;;
2710;SDS011;20721;47.402;8.550;2023-12-20T08:03:39;6.35;;;6.35;;
2710;SDS011;20721;47.402;8.550;2023-12-20T08:06:39;7.26;;;7.26;;
2710;SDS011;20721;47.402;8.550;2023-12-20T08:08:39;6.78;;;6.78;;
2710;SDS011;20721;47.402;8.550;2023-12-20T08:10:40;6.49;;;6.49;;
2710;SDS011;20721;47.402;8.550;2023-12-20T08:12:39;7.11;;;7.11;;
2710;SDS011;20721;47.402;8.550;2023-12-20T08:14:39;6.15;;;6.15;;
2710;SDS011;20721;47.402;8.550;2023-12-20T08:16:39;7.26;;;7.26;;
2710;SDS011;20721;47.402;8.550;2023-12-20T08:19:39;5.98;;;5.98;;
2710;SDS011;20721;47.402;8.550;2023-12-20T08:21:39;6.01;;;6.01;;
2710;SDS011;20721;47.402;8.550;2023-12-20T08:23:42;6.01;;;6.01;;
2710;SDS011;20721;47.402;8.550;2023-12-20T08:25:39;6.38;;;6.38;;
2710;SDS011;20721;47.402;8.550;2023-12-20T08:27:39;5.47;;;5.47;;
2710;SDS011;20721;47.402;8.550;2023-12-20T08:29:39;6.32;;;6.32;;
2710;SDS011;20721;47.402;8.550;2023-12-20T08:31:39;5.71;;;5.71;;
2710;SDS011;20721;47.402;8.550;2023-12-20T08:33:39;6.85;;;6.85;;
2710;SDS011;20721;47.402;8.550;2023-12-20T08:35:39;5.60;;;5.60;;
2710;SDS011;20721;47.402;8.550;2023-12-20T08:37:39;5.38;;;5.38;;
2710;SDS011;20721;47.402;8.550;2023-12-20T08:39:40;5.40;;;5.40;;
2710;SDS011;20721;47.402;8.550;2023-12-20T08:41:39;4.97;;;4.97;;
2710;SDS011;20721;47.402;8.550;2023-12-20T08:43:39;5.15;;;5.15;;
2710;SDS011;20721;47.402;8.550;2023-12-20T08:46:39;5.20;;;5.20;;
2710;SDS011;20721;47.402;8.550;2023-12-20T08:48:39;5.55;;;5.55;;
2710;SDS011;20721;47.402;8.550;2023-12-20T08:50:39;4.77;;;4.77;;
2710;SDS011;20721;47.402;8.550;2023-12-20T08:53:39;4.80;;;4.80;;
2710;SDS011;20721;47.402;8.550;2023-12-20T08:55:41;4.43;;;4.43;;
2710;SDS011;20721;47.402;8.550;2023-12-20T08:57:39;4.71;;;4.71;;
2710;SDS011;20721;47.402;8.550;2023-12-20T08:59:39;4.96;;;4.96;;
2710;SDS011;20721;47.402;8.550;2023-12-20T09:01:39;4.86;;;4.86;;
2710;SDS011;20721;47.402;8.550;2023-12-20T09:03:39;5.12;;;5.12;;
2710;SDS011;20721;47.402;8.550;2023-12-20T09:05:40;5.51;;;5.51;;
2710;SDS011;20721;47.402;8.550;2023-12-20T09:07:41;5.32;;;5.32;;
2710;SDS011;20721;47.402;8.550;2023-12-20T09:09:39;5.62;;;5.62;;
2710;SDS011;20721;47.402;8.550;2023-12-20T09:11:39;6.00;;;6.00;;
2710;SDS011;20721;47.402;8.550;2023-12-20T09:13:39;5.33;;;5.33;;
2710;SDS011;20721;47.402;8.550;2023-12-20T09:15:40;5.63;;;5.63;;
2710;SDS011;20721;47.402;8.550;2023-12-20T09:18:39;5.56;;;5.56;;
2710;SDS011;20721;47.402;8.550;2023-12-20T09:20:39;5.92;;;5.92;;
2710;SDS011;20721;47.402;8.550;2023-12-20T09:22:39;5.34;;;5.34;;
2710;SDS011;20721;47.402;8.550;2023-12-20T09:24:40;5.51;;;5.51;;
2710;SDS011;20721;47.402;8.550;2023-12-20T09:26:39;5.50;;;5.50;;
2710;SDS011;20721;47.402;8.550;2023-12-20T09:28:39;6.06;;;6.06;;
2710;SDS011;20721;47.402;8.550;2023-12-20T09:30:39;6.19;;;6.19;;
2710;SDS011;20721;47.402;8.550;2023-12-20T09:32:39;6.03;;;6.03;;
2710;SDS011;20721;47.402;8.550;2023-12-20T09:34:39;5.57;;;5.57;;
2710;SDS011;20721;47.402;8.550;2023-12-20T09:36:41;6.41;;;6.41;;
2710;SDS011;20721;47.402;8.550;2023-12-20T09:38:39;5.51;;;5.51;;
2710;SDS011;20721;47.402;8.550;2023-12-20T09:40:41;5.10;;;5.10;;
2710;SDS011;20721;47.402;8.550;2023-12-20T09:42:56;5.18;;;5.18;;
2710;SDS011;20721;47.402;8.550;2023-12-20T09:44:40;6.66;;;6.66;;
2710;SDS011;20721;47.402;8.550;2023-12-20T09:47:39;5.20;;;5.20;;
2710;SDS011;20721;47.402;8.550;2023-12-20T09:49:39;6.29;;;6.29;;
2710;SDS011;20721;47.402;8.550;2023-12-20T09:51:39;5.84;;;5.84;;
2710;SDS011;20721;47.402;8.550;2023-12-20T09:53:40;5.75;;;5.75;;
2710;SDS011;20721;47.402;8.550;2023-12-20T09:55:41;5.48;;;5.48;;
2710;SDS011;20721;47.402;8.550;2023-12-20T09:57:39;6.27;;;6.27;;
2710;SDS011;20721;47.402;8.550;2023-12-20T09:59:39;5.83;;;5.83;;
2710;SDS011;20721;47.402;8.550;2023-12-20T10:01:40;6.18;;;6.18;;
2710;SDS011;20721;47.402;8.550;2023-12-20T10:03:40;6.83;;;6.83;;
2710;SDS011;20721;47.402;8.550;2023-12-20T10:05:41;5.67;;;5.67;;
2710;SDS011;20721;47.402;8.550;2023-12-20T10:07:40;5.71;;;5.71;;
2710;SDS011;20721;47.402;8.550;2023-12-20T10:09:41;6.22;;;6.22;;
2710;SDS011;20721;47.402;8.550;2023-12-20T10:11:39;6.57;;;6.57;;
2710;SDS011;20721;47.402;8.550;2023-12-20T10:13:39;6.24;;;6.24;;
2710;SDS011;20721;47.402;8.550;2023-12-20T10:15:39;6.55;;;6.55;;
2710;SDS011;20721;47.402;8.550;2023-12-20T10:18:49;6.14;;;6.14;;
2710;SDS011;20721;47.402;8.550;2023-12-20T10:20:40;5.75;;;5.75;;
2710;SDS011;20721;47.402;8.550;2023-12-20T10:22:39;5.53;;;5.53;;
2710;SDS011;20721;47.402;8.550;2023-12-20T10:24:40;5.56;;;5.56;;
2710;SDS011;20721;47.402;8.550;2023-12-20T10:26:39;5.65;;;5.65;;
2710;SDS011;20721;47.402;8.550;2023-12-20T10:28:43;5.52;;;5.52;;
2710;SDS011;20721;47.402;8.550;2023-12-20T10:30:40;5.40;;;5.40;;
2710;SDS011;20721;47.402;8.550;2023-12-20T10:32:39;6.25;;;6.25;;
2710;SDS011;20721;47.402;8.550;2023-12-20T10:34:42;6.72;;;6.72;;
2710;SDS011;20721;47.402;8.550;2023-12-20T10:36:40;5.57;;;5.57;;
2710;SDS011;20721;47.402;8.550;2023-12-20T10:38:40;6.39;;;6.39;;
2710;SDS011;20721;47.402;8.550;2023-12-20T10:40:40;5.95;;;5.95;;
2710;SDS011;20721;47.402;8.550;2023-12-20T10:42:39;6.15;;;6.15;;
2710;SDS011;20721;47.402;8.550;2023-12-20T10:44:39;6.74;;;6.74;;
2710;SDS011;20721;47.402;8.550;2023-12-20T10:46:43;6.36;;;6.36;;
2710;SDS011;20721;47.402;8.550;2023-12-20T10:48:40;6.30;;;6.30;;
2710;SDS011;20721;47.402;8.550;2023-12-20T10:50:40;6.35;;;6.35;;
2710;SDS011;20721;47.402;8.550;2023-12-20T10:52:42;6.11;;;6.11;;
2710;SDS011;20721;47.402;8.550;2023-12-20T10:54:39;6.51;;;6.51;;
2710;SDS011;20721;47.402;8.550;2023-12-20T10:56:42;6.48;;;6.48;;
2710;SDS011;20721;47.402;8.550;2023-12-20T10:58:39;5.93;;;5.93;;
2710;SDS011;20721;47.402;8.550;2023-12-20T11:01:39;5.96;;;5.96;;
2710;SDS011;20721;47.402;8.550;2023-12-20T11:03:43;5.34;;;5.34;;
2710;SDS011;20721;47.402;8.550;2023-12-20T11:05:50;6.19;;;6.19;;
2710;SDS011;20721;47.402;8.550;2023-12-20T11:07:46;5.74;;;5.74;;
2710;SDS011;20721;47.402;8.550;2023-12-20T11:09:45;4.96;;;4.96;;
2710;SDS011;20721;47.402;8.550;2023-12-20T11:13:44;5.65;;;5.65;;
2710;SDS011;20721;47.402;8.550;2023-12-20T11:15:39;5.29;;;5.29;;
2710;SDS011;20721;47.402;8.550;2023-12-20T11:17:41;5.50;;;5.50;;
2710;SDS011;20721;47.402;8.550;2023-12-20T11:20:09;5.52;;;5.52;;
2710;SDS011;20721;47.402;8.550;2023-12-20T11:21:40;4.63;;;4.63;;
2710;SDS011;20721;47.402;8.550;2023-12-20T11:23:39;5.24;;;5.24;;
2710;SDS011;20721;47.402;8.550;2023-12-20T11:25:45;5.58;;;5.58;;
2710;SDS011;20721;47.402;8.550;2023-12-20T11:27:41;4.96;;;4.96;;
2710;SDS011;20721;47.402;8.550;2023-12-20T11:29:40;5.88;;;5.88;;
2710;SDS011;20721;47.402;8.550;2023-12-20T11:31:49;5.40;;;5.40;;
2710;SDS011;20721;47.402;8.550;2023-12-20T11:33:45;4.97;;;4.97;;
2710;SDS011;20721;47.402;8.550;2023-12-20T11:35:39;4.81;;;4.81;;
2710;SDS011;20721;47.402;8.550;2023-12-20T11:37:42;4.99;;;4.99;;
2710;SDS011;20721;47.402;8.550;2023-12-20T11:39:40;5.49;;;5.49;;
2710;SDS011;20721;47.402;8.550;2023-12-20T11:41:43;5.14;;;5.14;;
2710;SDS011;20721;47.402;8.550;2023-12-20T11:43:40;5.67;;;5.67;;
2710;SDS011;20721;47.402;8.550;2023-12-20T11:45:48;5.76;;;5.76;;
2710;SDS011;20721;47.402;8.550;2023-12-20T11:47:41;5.04;;;5.04;;
2710;SDS011;20721;47.402;8.550;2023-12-20T11:49:40;5.05;;;5.05;;
2710;SDS011;20721;47.402;8.550;2023-12-20T11:51:41;4.82;;;4.82;;
2710;SDS011;20721;47.402;8.550;2023-12-20T11:53:41;4.49;;;4.49;;
2710;SDS011;20721;47.402;8.550;2023-12-20T11:55:39;4.44;;;4.44;;
2710;SDS011;20721;47.402;8.550;2023-12-20T11:57:40;3.77;;;3.77;;
2710;SDS011;20721;47.402;8.550;2023-12-20T12:00:39;3.95;;;3.95;;
2710;SDS011;20721;47.402;8.550;2023-12-20T12:02:40;2.70;;;2.70;;
2710;SDS011;20721;47.402;8.550;2023-12-20T12:04:41;2.26;;;2.26;;
2710;SDS011;20721;47.402;8.550;2023-12-20T12:06:39;2.61;;;2.61;;
2710;SDS011;20721;47.402;8.550;2023-12-20T12:08:39;2.44;;;2.44;;
2710;SDS011;20721;47.402;8.550;2023-12-20T12:10:40;2.26;;;2.26;;
2710;SDS011;20721;47.402;8.550;2023-12-20T12:12:40;1.98;;;1.98;;
2710;SDS011;20721;47.402;8.550;2023-12-20T12:14:39;2.21;;;2.21;;
2710;SDS011;20721;47.402;8.550;2023-12-20T12:16:41;2.07;;;2.07;;
2710;SDS011;20721;47.402;8.550;2023-12-20T12:18:39;2.32;;;2.32;;
2710;SDS011;20721;47.402;8.550;2023-12-20T12:20:39;2.61;;;2.61;;
2710;SDS011;20721;47.402;8.550;2023-12-20T12:22:39;2.07;;;2.07;;
2710;SDS011;20721;47.402;8.550;2023-12-20T12:24:39;2.04;;;2.04;;
2710;SDS011;20721;47.402;8.550;2023-12-20T12:27:40;2.29;;;2.29;;
2710;SDS011;20721;47.402;8.550;2023-12-20T12:29:40;1.77;;;1.77;;
2710;SDS011;20721;47.402;8.550;2023-12-20T12:31:40;2.49;;;2.49;;
2710;SDS011;20721;47.402;8.550;2023-12-20T12:33:40;1.98;;;1.98;;
2710;SDS011;20721;47.402;8.550;2023-12-20T12:35:40;2.02;;;2.02;;
2710;SDS011;20721;47.402;8.550;2023-12-20T12:37:40;2.01;;;2.01;;
2710;SDS011;20721;47.402;8.550;2023-12-20T12:39:40;1.74;;;1.74;;
2710;SDS011;20721;47.402;8.550;2023-12-20T12:41:39;1.61;;;1.61;;
2710;SDS011;20721;47.402;8.550;2023-12-20T12:44:39;1.75;;;1.75;;
2710;SDS011;20721;47.402;8.550;2023-12-20T12:46:39;1.74;;;1.74;;